createdAt,value
2023-07-07T00:00:34.555Z,7.75
2023-07-07T00:05:36.312Z,4.43
2023-07-07T00:10:36.988Z,6.35
2023-07-07T00:15:45.734Z,6.70
2023-07-07T00:20:46.724Z,6.05
2023-07-07T00:25:47.429Z,5.22
2023-07-07T00:30:49.430Z,8.23
2023-07-07T00:35:50.811Z,5.40
2023-07-07T00:40:54.091Z,4.43
2023-07-07T00:45:58.010Z,9.63
2023-07-07T00:51:02.604Z,3.28
2023-07-07T00:56:07.991Z,6.10
2023-07-07T01:01:15.341Z,4.30
2023-07-07T01:06:20.433Z,4.97
2023-07-07T01:11:21.114Z,6.90
2023-07-07T01:16:34.153Z,9.70
2023-07-07T01:21:42.870Z,5.80
2023-07-07T01:27:04.173Z,3.80
2023-07-07T01:32:11.616Z,9.68
2023-07-07T01:37:12.257Z,19.42
2023-07-07T01:42:18.182Z,4.63
2023-07-07T01:47:22.368Z,6.72
2023-07-07T01:52:33.008Z,6.72
2023-07-07T01:57:34.634Z,5.10
2023-07-07T02:02:37.941Z,4.88
2023-07-07T02:07:38.870Z,8.23
2023-07-07T02:12:39.747Z,7.45
2023-07-07T02:17:41.963Z,7.10
2023-07-07T02:22:42.628Z,7.30
2023-07-07T02:27:43.297Z,5.72
2023-07-07T02:32:45.365Z,6.40
2023-07-07T02:37:46.120Z,6.63
2023-07-07T02:42:47.317Z,5.30
2023-07-07T02:47:49.305Z,7.32
2023-07-07T02:52:49.985Z,6.13
2023-07-07T02:57:50.665Z,7.18
2023-07-07T03:02:53.018Z,4.63
2023-07-07T03:07:53.843Z,6.57
2023-07-07T03:12:55.287Z,6.63
2023-07-07T03:17:58.304Z,6.38
2023-07-07T03:23:00.179Z,7.93
2023-07-07T03:28:01.304Z,5.65
2023-07-07T03:33:12.585Z,10.07
2023-07-07T03:38:14.683Z,4.70
2023-07-07T03:43:19.468Z,8.88
2023-07-07T03:48:22.306Z,6.53
2023-07-07T03:53:23.322Z,5.00
2023-07-07T03:58:26.993Z,7.28
2023-07-07T04:03:29.337Z,5.10
2023-07-07T04:08:30.848Z,6.65
2023-07-07T04:13:33.305Z,4.85
2023-07-07T04:18:36.177Z,7.65
2023-07-07T04:23:40.373Z,4.55
2023-07-07T04:28:41.884Z,5.15
2023-07-07T04:33:43.958Z,6.57
2023-07-07T04:38:45.998Z,4.55
2023-07-07T04:43:50.849Z,8.40
2023-07-07T04:48:52.932Z,7.85
2023-07-07T04:53:54.252Z,7.90
2023-07-07T04:58:57.800Z,6.05
2023-07-07T05:04:02.089Z,6.05
2023-07-07T05:09:04.713Z,6.70
2023-07-07T05:14:05.626Z,6.97
2023-07-07T05:19:08.713Z,7.88
2023-07-07T05:24:11.267Z,6.95
2023-07-07T05:29:12.007Z,9.10
2023-07-07T05:34:14.023Z,9.07
2023-07-07T05:39:14.675Z,5.53
2023-07-07T05:44:15.349Z,5.53
2023-07-07T05:49:17.322Z,6.25
2023-07-07T05:54:17.941Z,5.30
2023-07-07T05:59:18.636Z,4.15
2023-07-07T06:04:21.271Z,11.27
2023-07-07T06:09:21.965Z,5.25
2023-07-07T06:14:22.676Z,5.95
2023-07-07T06:19:24.916Z,5.82
2023-07-07T06:24:25.607Z,5.57
2023-07-07T06:29:27.348Z,4.70
2023-07-07T06:34:29.886Z,4.95
2023-07-07T06:39:30.785Z,4.43
2023-07-07T06:44:31.665Z,7.13
2023-07-07T06:49:33.775Z,7.53
2023-07-07T06:54:34.504Z,4.22
2023-07-07T06:59:35.342Z,9.65
2023-07-07T07:04:37.335Z,4.05
2023-07-07T07:09:38.163Z,6.25
2023-07-07T07:14:38.820Z,3.22
2023-07-07T07:19:40.826Z,10.07
2023-07-07T07:24:41.519Z,4.43
2023-07-07T07:29:44.631Z,9.20
2023-07-07T07:34:46.697Z,3.13
2023-07-07T07:39:47.331Z,7.78
2023-07-07T07:44:48.133Z,4.57
2023-07-07T07:49:51.000Z,4.68
2023-07-07T07:54:51.757Z,7.03
2023-07-07T07:59:52.423Z,3.42
2023-07-07T08:04:54.495Z,4.35
2023-07-07T08:09:55.115Z,4.65
2023-07-07T08:14:55.812Z,5.68
2023-07-07T08:19:58.566Z,5.38
2023-07-07T08:25:01.537Z,4.80
2023-07-07T08:30:02.841Z,5.60
2023-07-07T08:35:05.361Z,7.82
2023-07-07T08:40:07.449Z,8.40
2023-07-07T08:45:15.893Z,6.93
2023-07-07T08:50:30.439Z,7.78
2023-07-07T08:55:45.754Z,5.65
2023-07-07T09:00:56.258Z,3.90
2023-07-07T09:06:07.436Z,4.55
2023-07-07T09:11:19.178Z,4.95
2023-07-07T09:16:29.196Z,11.38
2023-07-07T09:21:38.360Z,5.30
2023-07-07T09:26:40.073Z,4.72
2023-07-07T09:31:44.065Z,6.90
2023-07-07T09:36:54.531Z,6.43
2023-07-07T09:42:05.404Z,3.63
2023-07-07T09:47:19.272Z,4.25
2023-07-07T09:52:49.501Z,4.28
2023-07-07T09:57:58.626Z,4.50
2023-07-07T10:03:00.547Z,2.80
2023-07-07T10:08:04.363Z,4.60
2023-07-07T10:13:05.015Z,4.38
2023-07-07T10:18:15.131Z,5.65
2023-07-07T10:23:17.515Z,3.40
2023-07-07T10:28:20.396Z,3.97
2023-07-07T10:33:22.802Z,6.07
2023-07-07T10:38:27.324Z,4.47
2023-07-07T10:43:31.046Z,3.42
2023-07-07T10:48:31.937Z,6.70
2023-07-07T10:53:52.786Z,4.00
2023-07-07T10:59:11.439Z,6.38
2023-07-07T11:04:38.653Z,7.72
2023-07-07T11:10:11.974Z,3.33
2023-07-07T11:15:23.728Z,7.82
2023-07-07T11:20:49.171Z,3.95
2023-07-07T11:26:02.185Z,8.57
2023-07-07T11:31:23.346Z,3.03
2023-07-07T11:36:45.444Z,4.40
2023-07-07T11:42:04.864Z,3.33
2023-07-07T11:47:20.411Z,3.80
2023-07-07T11:52:48.694Z,5.20
2023-07-07T11:58:03.528Z,4.72
2023-07-07T12:03:27.772Z,4.03
2023-07-07T12:08:39.308Z,7.80
2023-07-07T12:14:00.012Z,2.42
2023-07-07T12:19:17.941Z,6.00
2023-07-07T12:24:25.817Z,4.50
2023-07-07T12:29:29.405Z,4.97
2023-07-07T12:34:40.244Z,4.78
2023-07-07T12:39:55.329Z,3.53
2023-07-07T12:44:59.140Z,5.55
2023-07-07T12:50:03.054Z,3.88
2023-07-07T12:55:21.833Z,3.47
2023-07-07T13:00:30.352Z,2.40
2023-07-07T13:05:34.108Z,4.18
2023-07-07T13:10:47.337Z,4.60
2023-07-07T13:15:49.394Z,4.28
2023-07-07T13:20:52.458Z,3.03
2023-07-07T13:25:53.188Z,6.75
2023-07-07T13:30:57.804Z,5.50
2023-07-07T13:36:01.394Z,2.97
2023-07-07T13:41:06.274Z,3.10
2023-07-07T13:46:17.669Z,7.55
2023-07-07T13:51:23.466Z,4.35
2023-07-07T13:56:24.935Z,3.80
2023-07-07T14:01:32.428Z,3.47
2023-07-07T14:06:34.431Z,5.35
2023-07-07T14:11:36.530Z,3.92
2023-07-07T14:16:42.046Z,5.63
2023-07-07T14:21:44.024Z,3.40
2023-07-07T14:26:45.327Z,2.85
2023-07-07T14:31:47.411Z,6.40
2023-07-07T14:36:50.426Z,3.80
2023-07-07T14:41:52.862Z,9.93
2023-07-07T14:46:55.090Z,13.15
2023-07-07T14:51:58.472Z,3.83
2023-07-07T14:57:04.966Z,8.35
2023-07-07T15:02:30.852Z,3.70
2023-07-07T15:07:32.953Z,4.20
2023-07-07T15:12:36.661Z,2.85
2023-07-07T15:17:38.705Z,3.95
2023-07-07T15:22:39.511Z,6.55
2023-07-07T15:27:40.860Z,4.32
2023-07-07T15:32:43.071Z,3.88
2023-07-07T15:37:45.035Z,4.57
2023-07-07T15:42:46.558Z,6.40
2023-07-07T15:47:48.810Z,4.75
2023-07-07T15:52:49.675Z,3.15
2023-07-07T15:57:50.366Z,2.50
2023-07-07T16:02:52.513Z,5.57
2023-07-07T16:07:53.357Z,2.92
2023-07-07T16:12:54.049Z,5.95
2023-07-07T16:17:56.157Z,4.63
2023-07-07T16:22:58.809Z,8.27
2023-07-07T16:27:59.772Z,3.13
2023-07-07T16:33:01.918Z,5.90
2023-07-07T16:38:02.691Z,5.25
2023-07-07T16:43:04.857Z,4.65
2023-07-07T16:48:13.382Z,4.78
2023-07-07T16:53:14.196Z,5.05
2023-07-07T16:58:16.344Z,3.60
2023-07-07T17:03:18.417Z,5.65
2023-07-07T17:08:19.087Z,3.42
2023-07-07T17:13:20.110Z,3.85
2023-07-07T17:18:22.200Z,4.05
2023-07-07T17:23:22.887Z,2.42
2023-07-07T17:28:23.841Z,3.15
2023-07-07T17:33:25.879Z,3.08
2023-07-07T17:38:26.723Z,4.03
2023-07-07T17:43:27.379Z,6.47
2023-07-07T17:48:29.355Z,4.68
2023-07-07T17:53:30.072Z,3.15
2023-07-07T17:58:30.841Z,3.17
2023-07-07T18:03:33.130Z,3.95
2023-07-07T18:08:34.030Z,4.82
2023-07-07T18:13:34.734Z,5.93
2023-07-07T18:18:54.074Z,5.35
2023-07-07T18:23:57.762Z,3.20
2023-07-07T18:29:01.908Z,5.53
2023-07-07T18:34:04.092Z,4.25
2023-07-07T18:39:11.384Z,3.97
2023-07-07T18:44:12.101Z,3.05
2023-07-07T18:49:14.888Z,4.38
2023-07-07T18:54:18.063Z,4.55
2023-07-07T18:59:22.375Z,3.92
2023-07-07T19:04:24.649Z,4.65
2023-07-07T19:09:25.346Z,4.60
2023-07-07T19:14:28.973Z,6.47
2023-07-07T19:19:31.028Z,6.80
2023-07-07T19:24:31.716Z,4.70
2023-07-07T19:29:32.366Z,5.35
2023-07-07T19:34:34.418Z,6.68
2023-07-07T19:39:35.674Z,9.68
2023-07-07T19:44:36.341Z,14.05
2023-07-07T19:49:38.305Z,13.45
2023-07-07T19:54:39.469Z,12.23
2023-07-07T19:59:40.154Z,14.60
2023-07-07T20:04:42.185Z,10.75
2023-07-07T20:09:42.891Z,8.38
2023-07-07T20:14:43.707Z,7.35
2023-07-07T20:19:45.745Z,5.55
2023-07-07T20:24:46.417Z,11.52
2023-07-07T20:29:47.090Z,5.93
2023-07-07T20:34:49.676Z,12.55
2023-07-07T20:39:52.609Z,16.25
2023-07-07T20:44:53.433Z,15.90
2023-07-07T20:49:55.541Z,25.73
2023-07-07T20:54:56.205Z,15.80
2023-07-07T20:59:56.860Z,16.20
2023-07-07T21:04:58.924Z,17.80
2023-07-07T21:09:59.809Z,15.85
2023-07-07T21:15:00.458Z,23.45
2023-07-07T21:20:15.122Z,11.95
2023-07-07T21:25:15.826Z,33.40
2023-07-07T21:30:18.499Z,23.05
2023-07-07T21:35:20.636Z,14.25
2023-07-07T21:40:23.087Z,13.88
2023-07-07T21:45:25.447Z,9.93
2023-07-07T21:50:28.167Z,18.35
2023-07-07T21:55:28.906Z,24.15
2023-07-07T22:00:31.690Z,17.85
2023-07-07T22:05:33.666Z,13.95
2023-07-07T22:10:39.854Z,16.33
2023-07-07T22:15:41.828Z,17.17
2023-07-07T22:20:46.275Z,20.00
2023-07-07T22:25:46.994Z,15.65
2023-07-07T22:30:50.784Z,8.02
2023-07-07T22:35:53.672Z,11.32
2023-07-07T22:40:57.039Z,38.83
2023-07-07T22:46:00.122Z,17.63
2023-07-07T22:51:02.199Z,12.38
2023-07-07T22:56:03.341Z,14.35
2023-07-07T23:01:06.883Z,13.05
2023-07-07T23:06:12.683Z,10.68
2023-07-07T23:11:16.964Z,11.48
2023-07-07T23:16:19.217Z,7.68
2023-07-07T23:21:21.246Z,8.45
2023-07-07T23:26:28.295Z,7.03
2023-07-07T23:31:29.601Z,11.38
2023-07-07T23:36:33.066Z,8.82
2023-07-07T23:41:33.811Z,10.20
2023-07-07T23:46:35.546Z,7.00
2023-07-07T23:51:37.556Z,7.88
2023-07-07T23:56:38.180Z,14.80
